createdAt,value
2018-01-13T00:00:07.457Z,2
2018-01-13T00:05:10.175Z,2
2018-01-13T00:10:10.437Z,2
2018-01-13T00:15:10.597Z,1.9
2018-01-13T00:20:13.072Z,1.9
2018-01-13T00:25:10.794Z,1.9
2018-01-13T00:30:10.573Z,1.9
2018-01-13T00:35:03.197Z,1.9
2018-01-13T00:40:05.431Z,1.9
2018-01-13T00:45:03.138Z,1.9
2018-01-13T00:50:09.962Z,1.9
2018-01-13T00:55:02.730Z,1.9
2018-01-13T01:05:08.067Z,1.9
2018-01-13T01:10:05.257Z,1.9
2018-01-13T01:15:02.990Z,1.9
2018-01-13T01:20:15.985Z,1.9
2018-01-13T01:25:07.687Z,1.9
2018-01-13T01:30:10.481Z,1.9
2018-01-13T01:35:30.932Z,1.9
2018-01-13T01:40:07.758Z,1.9
2018-01-13T01:45:05.424Z,1.8
2018-01-13T01:50:10.295Z,1.8
2018-01-13T01:55:18.123Z,1.8
2018-01-13T02:00:07.414Z,1.8
2018-01-13T02:05:05.104Z,1.8
2018-01-13T02:10:15.427Z,1.7
2018-01-13T02:15:08.045Z,1.8
2018-01-13T02:20:13.477Z,1.7
2018-01-13T02:25:10.143Z,1.8
2018-01-13T02:30:02.338Z,1.8
2018-01-13T02:35:22.796Z,1.8
2018-01-13T02:40:12.622Z,1.8
2018-01-13T02:45:25.513Z,1.8
2018-01-13T02:50:02.730Z,1.8
2018-01-13T02:55:10.534Z,1.8
2018-01-13T03:00:07.814Z,1.8
2018-01-13T03:05:05.636Z,1.8
2018-01-13T03:10:22.633Z,1.8
2018-01-13T03:15:07.743Z,1.8
2018-01-13T03:20:28.283Z,1.8
2018-01-13T03:25:27.829Z,1.8
2018-01-13T03:30:08.100Z,1.8
2018-01-13T03:35:08.365Z,1.7
2018-01-13T03:40:05.618Z,1.7
2018-01-13T03:45:08.345Z,1.7
2018-01-13T03:50:07.674Z,1.6
2018-01-13T03:55:07.857Z,1.6
2018-01-13T04:00:08.084Z,1.6
2018-01-13T04:05:21.044Z,1.6
2018-01-13T04:10:10.344Z,1.6
2018-01-13T04:15:08.061Z,1.6
2018-01-13T04:20:35.282Z,1.6
2018-01-13T04:25:02.510Z,1.6
2018-01-13T04:30:10.314Z,1.6
2018-01-13T04:35:08.091Z,1.6
2018-01-13T04:40:12.901Z,1.6
2018-01-13T04:50:25.810Z,1.6
2018-01-13T04:55:10.664Z,1.5
2018-01-13T05:00:35.805Z,1.5
2018-01-13T05:05:08.124Z,1.5
2018-01-13T05:10:23.057Z,1.5
2018-01-13T05:15:30.878Z,1.5
2018-01-13T05:35:05.043Z,1.5
2018-01-13T05:40:05.300Z,1.5
2018-01-13T05:45:13.120Z,1.5
2018-01-13T05:50:05.925Z,1.5
2018-01-13T05:55:02.543Z,1.5
2018-01-13T06:05:20.564Z,1.5
2018-01-13T06:10:05.789Z,1.5
2018-01-13T06:15:35.417Z,1.5
2018-01-13T06:35:08.182Z,1.5
2018-01-13T06:40:15.539Z,1.5
2018-01-13T06:45:23.355Z,1.4
2018-01-13T06:55:18.138Z,1.4
2018-01-13T07:00:35.365Z,1.4
2018-01-13T07:05:05.160Z,1.4
2018-01-13T07:10:05.403Z,1.4
2018-01-13T07:15:08.158Z,1.4
2018-01-13T07:20:15.150Z,1.4
2018-01-13T07:30:18.039Z,1.4
2018-01-13T07:35:08.224Z,1.3
2018-01-13T07:40:30.809Z,1.4
2018-01-13T07:45:10.612Z,1.3
2018-01-13T07:50:23.101Z,1.3
2018-01-13T07:55:13.234Z,1.3
2018-01-13T08:00:02.488Z,1.3
2018-01-13T08:05:05.207Z,1.3
2018-01-13T08:10:38.367Z,1.3
2018-01-13T08:15:05.224Z,1.3
2018-01-13T08:20:02.566Z,1.3
2018-01-13T08:25:35.583Z,1.3
2018-01-13T08:30:25.584Z,1.3
2018-01-13T08:35:23.084Z,1.3
2018-01-13T08:40:20.537Z,1.3
2018-01-13T08:45:18.246Z,1.3
2018-01-13T08:50:30.343Z,1.2
2018-01-13T08:55:07.703Z,1.1
2018-01-13T09:00:10.576Z,1.1
2018-01-13T09:05:05.834Z,1.2
2018-01-13T09:10:25.325Z,1.1
2018-01-13T09:15:22.775Z,1.1
2018-01-13T09:20:20.850Z,1.1
2018-01-13T09:35:02.569Z,1.1
2018-01-13T09:40:13.422Z,1.2
2018-01-13T09:45:02.575Z,1.1
2018-01-13T09:50:05.421Z,1.3
2018-01-13T09:55:18.442Z,1.2
2018-01-13T10:00:15.309Z,1.3
2018-01-13T10:05:07.982Z,1.3
2018-01-13T10:10:10.267Z,1.4
2018-01-13T10:15:28.174Z,1.5
2018-01-13T10:20:10.106Z,1.5
2018-01-13T10:25:07.775Z,1.7
2018-01-13T10:35:03.332Z,1.6
2018-01-13T10:40:10.626Z,1.6
2018-01-13T10:45:05.822Z,1.8
2018-01-13T10:50:08.136Z,1.7
2018-01-13T10:55:15.010Z,1.5
2018-01-13T11:00:20.985Z,1.5
2018-01-13T11:05:37.958Z,1.6
2018-01-13T11:10:15.354Z,1.8
2018-01-13T11:15:15.568Z,1.6
2018-01-13T11:20:35.778Z,1.5
2018-01-13T11:25:05.568Z,1.6
2018-01-13T11:30:15.400Z,1.5
2018-01-13T11:35:08.007Z,1.5
2018-01-13T11:40:15.310Z,1.5
2018-01-13T11:45:23.117Z,1.4
2018-01-13T11:50:04.954Z,1.4
2018-01-13T11:55:02.670Z,1.3
2018-01-13T12:00:33.252Z,1.3
2018-01-13T12:05:22.697Z,1.3
2018-01-13T12:10:17.692Z,1.2
2018-01-13T12:15:20.365Z,1.2
2018-01-13T12:20:10.191Z,1.2
2018-01-13T12:25:23.079Z,1.2
2018-01-13T12:35:27.795Z,1.3
2018-01-13T12:40:02.531Z,1.3
2018-01-13T12:45:02.732Z,1.2
2018-01-13T12:50:03.290Z,1.2
2018-01-13T12:55:15.092Z,1.2
2018-01-13T13:00:17.617Z,1.1
2018-01-13T13:05:20.414Z,1.2
2018-01-13T13:15:08.225Z,1
2018-01-13T13:20:05.084Z,1.1
2018-01-13T13:25:23.035Z,1.1
2018-01-13T13:30:08.350Z,1.1
2018-01-13T13:35:04.967Z,1.1
2018-01-13T13:40:15.363Z,1.1
2018-01-13T13:45:02.936Z,1.1
2018-01-13T13:50:20.870Z,1
2018-01-13T13:55:02.345Z,1
2018-01-13T14:00:07.759Z,0.9
2018-01-13T14:05:13.017Z,0.9
2018-01-13T14:10:28.023Z,1
2018-01-13T14:15:15.946Z,0.9
2018-01-13T14:20:03.436Z,0.9
2018-01-13T14:35:07.844Z,1.1
2018-01-13T14:40:07.585Z,1
2018-01-13T14:55:35.910Z,1
2018-01-13T15:00:03.186Z,1
2018-01-13T15:05:30.252Z,1
2018-01-13T15:10:30.765Z,0.9
2018-01-13T15:15:05.578Z,1
2018-01-13T15:25:05.535Z,0.9
2018-01-13T15:30:05.361Z,1
2018-01-13T15:35:13.152Z,0.9
2018-01-13T15:45:08.011Z,1
2018-01-13T15:50:03.293Z,1
2018-01-13T15:55:05.153Z,1
2018-01-13T16:00:22.673Z,1
2018-01-13T16:05:07.866Z,1
2018-01-13T16:15:25.468Z,1.1
2018-01-13T16:20:07.874Z,1
2018-01-13T16:25:08.243Z,1.1
2018-01-13T16:30:30.301Z,1.1
2018-01-13T16:35:07.616Z,1.1
2018-01-13T16:40:18.568Z,1.1
2018-01-13T16:45:20.200Z,1.1
2018-01-13T16:50:37.913Z,1.1
2018-01-13T17:00:15.871Z,1.1
2018-01-13T17:05:04.946Z,1.1
2018-01-13T17:20:05.676Z,1.1
2018-01-13T17:25:16.010Z,1.1
2018-01-13T17:30:08.313Z,1.1
2018-01-13T17:40:30.997Z,1.1
2018-01-13T17:50:27.758Z,1.1
2018-01-13T17:55:05.525Z,1.1
2018-01-13T18:05:10.392Z,1.1
2018-01-13T18:10:03.038Z,1.1
2018-01-13T18:20:35.383Z,1
2018-01-13T18:25:05.417Z,1
2018-01-13T18:30:17.778Z,1.1
2018-01-13T18:40:20.130Z,1.1
2018-01-13T18:45:02.691Z,1.1
2018-01-13T18:50:30.740Z,1.1
2018-01-13T19:00:13.219Z,1.1
2018-01-13T19:05:17.515Z,1.1
2018-01-13T19:15:20.129Z,1.1
2018-01-13T19:20:07.565Z,1
2018-01-13T19:25:07.835Z,1
2018-01-13T19:30:18.291Z,1
2018-01-13T19:35:03.307Z,1
2018-01-13T19:40:08.072Z,1
2018-01-13T19:45:10.927Z,0.9
2018-01-13T19:50:03.235Z,0.9
2018-01-13T19:55:07.613Z,0.9
2018-01-13T20:05:10.570Z,0.9
2018-01-13T20:10:23.477Z,1
2018-01-13T20:15:02.565Z,1
2018-01-13T20:25:20.711Z,0.8
2018-01-13T20:30:33.325Z,0.9
2018-01-13T20:35:02.570Z,0.9
2018-01-13T20:40:05.822Z,0.9
2018-01-13T20:45:05.005Z,0.9
2018-01-13T20:50:13.427Z,0.9
2018-01-13T20:55:25.407Z,0.9
2018-01-13T21:00:15.333Z,0.8
2018-01-13T21:05:02.995Z,0.9
2018-01-13T21:15:05.409Z,1
2018-01-13T21:20:23.050Z,1
2018-01-13T21:25:23.277Z,1
2018-01-13T21:30:07.586Z,1
2018-01-13T21:35:10.418Z,1
2018-01-13T21:40:10.797Z,1
2018-01-13T21:45:07.483Z,0.9
2018-01-13T21:50:12.842Z,0.9
2018-01-13T21:55:15.610Z,1
2018-01-13T22:00:05.516Z,1
2018-01-13T22:05:25.819Z,1
2018-01-13T22:10:02.507Z,1
2018-01-13T22:15:08.000Z,0.9
2018-01-13T22:20:07.452Z,0.9
2018-01-13T22:25:07.684Z,1
2018-01-13T22:30:07.954Z,1
2018-01-13T22:35:20.855Z,1
2018-01-13T22:40:02.592Z,1
2018-01-13T22:45:20.466Z,0.9
2018-01-13T22:55:33.236Z,0.9
2018-01-13T23:00:17.609Z,0.9
2018-01-13T23:05:02.673Z,0.9
2018-01-13T23:15:08.031Z,0.9
2018-01-13T23:20:28.644Z,1
2018-01-13T23:25:15.514Z,1
2018-01-13T23:30:25.565Z,1
2018-01-13T23:35:07.887Z,1
2018-01-13T23:40:02.588Z,1
2018-01-13T23:45:35.748Z,1
2018-01-13T23:50:05.573Z,1
2018-01-13T23:55:08.369Z,1
